• Join FlightAware (Why Join?)
  • Login
  • US Flag 
Gobble Gobble! 
11:42AM EST


 

Airport Tracker/Info


-or-


 

Live Flight TrackerFlight Track Log ✈ WJA1877 ✈ 07-May-2013 ✈ PHOG / OGG - CYVR

Flight Track Log - Related Links

Times and Time Zones

All times are in EDT time to prevent confusion due to time zone crossing. See the WJA1877 flight status page for this flight to view local times or setup timezone preferences in your user account.

Time Position Orientation Groundspeed Altitude Reporting Facility
EDT Latitude Longitude Course Direction KTS MPH feet Rate Location/Type
08:10PM 20.9167 -156.4000 25° Northeast 160 184 1,100  Level Honolulu Center
08:11PM 20.9500 -156.3833 25° Northeast 210 242 2,800 1,980 Climbing Honolulu Center
08:12PM 21.0333 -156.4000 349° North 270 311 5,100 2,520 Climbing Honolulu Center
08:13PM 21.1000 -156.4167 347° North 290 334 7,900 2,760 Climbing Honolulu Center
08:14PM 21.1833 -156.4333 349° North 290 334 10,700 2,160 Climbing Honolulu Center
08:15PM 21.2833 -156.4333 360° North 340 391 12,300 2,100 Climbing Honolulu Center
08:16PM 21.3833 -156.4333 360° North 350 403 14,900 2,340 Climbing Honolulu Center
08:17PM 21.4667 -156.4333 360° North 360 414 17,100 1,980 Climbing Honolulu Center
08:18PM 21.5833 -156.4333 360° North 370 426 19,000 1,740 Climbing Honolulu Center
08:19PM 21.6833 -156.4333 360° North 380 437 20,600 1,680 Climbing Honolulu Center
08:20PM 21.8000 -156.4333 360° North 410 472 22,400 1,680 Climbing Honolulu Center
08:21PM 21.9167 -156.4333 360° North 400 460 24,000 1,500 Climbing Honolulu Center
08:22PM 22.0333 -156.4333 360° North 410 472 25,400 1,260 Climbing Honolulu Center
08:23PM 22.1500 -156.4333 360° North 420 483 26,600 1,200 Climbing Honolulu Center
08:24PM 22.2667 -156.4333 360° North 440 506 27,900 1,320 Climbing Honolulu Center
08:25PM 22.3833 -156.4333 360° North 440 506 29,300 1,260 Climbing Honolulu Center
08:26PM 22.5167 -156.4167 North 440 506 30,500 1,140 Climbing Honolulu Center
08:27PM 22.6333 -156.4167 360° North 440 506 31,600 1,020 Climbing Honolulu Center
08:28PM 22.7667 -156.4167 360° North 450 518 32,600 1,140 Climbing Honolulu Center
08:29PM 22.8833 -156.4167 360° North 440 506 34,000 1,200 Climbing Honolulu Center
08:30PM 23.0000 -156.4167 360° North 440 506 35,000 480 Climbing Honolulu Center
08:31PM 23.1333 -156.4167 360° North 430 495 35,000  Level Honolulu Center
08:32PM 23.2500 -156.4167 360° North 430 495 35,000  Level Honolulu Center
08:33PM 23.3500 -156.4167 360° North 430 495 35,000  Level Honolulu Center
08:34PM 23.4667 -156.4167 360° North 420 483 35,000  Level Honolulu Center
08:35PM 23.5833 -156.4167 360° North 420 483 35,000  Level Honolulu Center
08:36PM 23.7167 -156.4167 360° North 430 495 35,000  Level Honolulu Center
08:37PM 23.8333 -156.4167 360° North 430 495 35,000  Level Honolulu Center
08:38PM 23.9500 -156.4167 360° North 440 506 35,000  Level Honolulu Center
08:39PM 24.0667 -156.4167 360° North 440 506 35,000  Level Honolulu Center
08:41PM 24.2175 -156.4167 North  Level FlightAware Approximate
08:48PM 25.0856 -156.4167 North  Level FlightAware Approximate
08:49PM 25.2049 -156.4001 35° Northeast  Level FlightAware Approximate
08:49PM 25.2000 -156.4167 35° Northeast 467 537 35,000  Level Oakland Oceanic (ODAPS)
08:50PM 25.3069 -156.3221 35° Northeast  Level FlightAware Approximate
08:51PM 25.4087 -156.2438 35° Northeast  Level FlightAware Approximate
08:52PM 25.5106 -156.1655 35° Northeast  Level FlightAware Approximate
08:53PM 25.6124 -156.0870 35° Northeast  Level FlightAware Approximate
08:54PM 25.7141 -156.0084 35° Northeast  Level FlightAware Approximate
08:55PM 25.8158 -155.9296 35° Northeast  Level FlightAware Approximate
08:56PM 25.9429 -155.8386 35° Northeast 467 537 35,000  Level FlightAware Transoceanic
08:57PM 26.0488 -155.7554 35° Northeast 467 537 35,000  Level FlightAware Transoceanic
08:58PM 26.1547 -155.6721 35° Northeast 467 537 35,000  Level FlightAware Transoceanic
08:59PM 26.2605 -155.5886 35° Northeast 467 537 35,000  Level FlightAware Transoceanic
09:00PM 26.3663 -155.5050 35° Northeast 467 537 35,000  Level FlightAware Transoceanic
09:01PM 26.4720 -155.4212 35° Northeast 467 537 35,000  Level FlightAware Transoceanic
09:02PM 26.5777 -155.3373 35° Northeast 467 537 35,000  Level FlightAware Transoceanic
09:03PM 26.6834 -155.2532 35° Northeast 467 537 35,000  Level FlightAware Transoceanic
09:04PM 26.7890 -155.1690 35° Northeast 467 537 35,000  Level FlightAware Transoceanic
09:05PM 26.8945 -155.0846 36° Northeast 467 537 35,000  Level FlightAware Transoceanic
09:06PM 27.0000 -155.0000 40° Northeast 467 537 35,000 480 Level FlightAware Transoceanic
09:06PM 27.0000 -155.0000 40° Northeast 467 537 36,000  Climbing Oakland Oceanic (ODAPS)
09:07PM 27.1038 -154.9027 40° Northeast 467 537 35,000 -960 Descending FlightAware Transoceanic
09:08PM 27.2076 -154.8052 40° Northeast 467 537 35,000  Level FlightAware Transoceanic
09:09PM 27.3113 -154.7075 40° Northeast 467 537 35,000  Level FlightAware Transoceanic
09:10PM 27.4149 -154.6097 40° Northeast 467 537 35,000  Level FlightAware Transoceanic
09:11PM 27.5184 -154.5117 40° Northeast 467 537 35,000  Level FlightAware Transoceanic
09:12PM 27.6219 -154.4134 40° Northeast 467 537 35,000 480 Level FlightAware Transoceanic
09:13PM 27.6970 -154.3421 40° Northeast 467 537 36,000 480 Climbing FlightAware Transoceanic
09:14PM 27.7963 -154.2474 40° Northeast 467 537 36,000  Level FlightAware Transoceanic
09:15PM 27.8955 -154.1526 40° Northeast 467 537 36,000  Level FlightAware Transoceanic
09:16PM 27.9947 -154.0575 40° Northeast 467 537 36,000  Level FlightAware Transoceanic
09:17PM 28.0938 -153.9624 40° Northeast 467 537 36,000  Level FlightAware Transoceanic
09:18PM 28.1929 -153.8670 40° Northeast 467 537 36,000  Level FlightAware Transoceanic
09:19PM 28.2918 -153.7714 40° Northeast 467 537 36,000  Level FlightAware Transoceanic
09:20PM 28.3908 -153.6757 40° Northeast 467 537 36,000  Level FlightAware Transoceanic
09:21PM 28.4896 -153.5798 40° Northeast 467 537 36,000  Level FlightAware Transoceanic
09:22PM 28.5884 -153.4837 41° Northeast 467 537 36,000  Level FlightAware Transoceanic
09:23PM 28.6871 -153.3875 41° Northeast 467 537 36,000  Level FlightAware Transoceanic
09:24PM 28.7857 -153.2910 41° Northeast 467 537 36,000  Level FlightAware Transoceanic
09:25PM 28.8843 -153.1944 41° Northeast 467 537 36,000  Level FlightAware Transoceanic
09:26PM 28.9828 -153.0976 41° Northeast 467 537 36,000  Level FlightAware Transoceanic
09:27PM 29.0813 -153.0006 41° Northeast 467 537 36,000  Level FlightAware Transoceanic
09:28PM 29.1796 -152.9034 41° Northeast 467 537 36,000  Level FlightAware Transoceanic
09:29PM 29.2779 -152.8060 41° Northeast 467 537 36,000  Level FlightAware Transoceanic
09:30PM 29.3762 -152.7085 41° Northeast 467 537 36,000  Level FlightAware Transoceanic
09:31PM 29.4743 -152.6107 41° Northeast 467 537 36,000  Level FlightAware Transoceanic
09:32PM 29.5724 -152.5128 41° Northeast 467 537 36,000  Level FlightAware Transoceanic
09:33PM 29.6704 -152.4147 41° Northeast 467 537 36,000  Level FlightAware Transoceanic
09:34PM 29.7684 -152.3164 41° Northeast 467 537 36,000  Level FlightAware Transoceanic
09:35PM 29.8662 -152.2179 41° Northeast 467 537 36,000  Level FlightAware Transoceanic
09:36PM 29.9640 -152.1192 41° Northeast 467 537 36,000  Level FlightAware Transoceanic
09:37PM 30.0618 -152.0203 41° Northeast 467 537 36,000  Level FlightAware Transoceanic
09:38PM 30.1594 -151.9212 41° Northeast 467 537 36,000  Level FlightAware Transoceanic
09:39PM 30.2570 -151.8219 41° Northeast 467 537 36,000  Level FlightAware Transoceanic
09:40PM 30.3545 -151.7224 41° Northeast 467 537 36,000  Level FlightAware Transoceanic
09:41PM 30.4519 -151.6227 41° Northeast 467 537 36,000  Level FlightAware Transoceanic
09:42PM 30.5492 -151.5228 42° Northeast 467 537 36,000  Level FlightAware Transoceanic
09:43PM 30.6465 -151.4228 42° Northeast 467 537 36,000  Level FlightAware Transoceanic
09:44PM 30.7437 -151.3225 42° Northeast 467 537 36,000  Level FlightAware Transoceanic
09:45PM 30.8408 -151.2220 42° Northeast 467 537 36,000  Level FlightAware Transoceanic
09:46PM 30.9379 -151.1213 42° Northeast 467 537 36,000  Level FlightAware Transoceanic
09:47PM 31.0348 -151.0204 42° Northeast 467 537 36,000  Level FlightAware Transoceanic
09:48PM 31.1317 -150.9193 42° Northeast 467 537 36,000  Level FlightAware Transoceanic
09:49PM 31.2285 -150.8180 42° Northeast 467 537 36,000  Level FlightAware Transoceanic
09:50PM 31.3252 -150.7165 42° Northeast 467 537 36,000  Level FlightAware Transoceanic
09:51PM 31.4219 -150.6148 42° Northeast 467 537 36,000  Level FlightAware Transoceanic
09:52PM 31.5184 -150.5128 42° Northeast 467 537 36,000  Level FlightAware Transoceanic
09:53PM 31.6149 -150.4107 42° Northeast 467 537 36,000  Level FlightAware Transoceanic
09:54PM 31.7113 -150.3083 42° Northeast 467 537 36,000  Level FlightAware Transoceanic
09:55PM 31.8076 -150.2058 42° Northeast 467 537 36,000  Level FlightAware Transoceanic
09:56PM 31.9039 -150.1030 42° Northeast 467 537 36,000  Level FlightAware Transoceanic
09:57PM 32.0000 -150.0000 38° Northeast 467 537 36,000  Level FlightAware Transoceanic
09:58PM 32.1061 -149.9017 38° Northeast 467 537 36,000  Level FlightAware Transoceanic
09:59PM 32.2122 -149.8032 38° Northeast 467 537 36,000 720 Level FlightAware Transoceanic
09:59PM 32.0000 -150.0000 38° Northeast 485 558 37,000  Climbing Oakland Oceanic (ODAPS)
10:00PM 32.3182 -149.7044 38° Northeast 467 537 36,000 -660 Descending FlightAware Transoceanic
10:01PM 32.4241 -149.6054 38° Northeast 467 537 36,000  Level FlightAware Transoceanic
10:02PM 32.5300 -149.5062 38° Northeast 467 537 36,000  Level FlightAware Transoceanic
10:03PM 32.6357 -149.4068 38° Northeast 467 537 36,000  Level FlightAware Transoceanic
10:04PM 32.7414 -149.3071 38° Northeast 467 537 36,000 480 Level FlightAware Transoceanic
10:05PM 32.9525 -149.1070 39° Northeast 485 558 37,000 480 Climbing FlightAware Transoceanic
10:06PM 33.0580 -149.0066 39° Northeast 485 558 37,000  Level FlightAware Transoceanic
10:07PM 33.1633 -148.9059 39° Northeast 485 558 37,000  Level FlightAware Transoceanic
10:08PM 33.2686 -148.8051 39° Northeast 485 558 37,000  Level FlightAware Transoceanic
10:09PM 33.3738 -148.7039 39° Northeast 485 558 37,000  Level FlightAware Transoceanic
10:10PM 33.4789 -148.6026 39° Northeast 485 558 37,000  Level FlightAware Transoceanic
10:11PM 33.5840 -148.5009 39° Northeast 485 558 37,000  Level FlightAware Transoceanic
10:12PM 33.6889 -148.3991 39° Northeast 485 558 37,000  Level FlightAware Transoceanic
10:13PM 33.7938 -148.2970 39° Northeast 485 558 37,000  Level FlightAware Transoceanic
10:14PM 33.8986 -148.1946 39° Northeast 485 558 37,000  Level FlightAware Transoceanic
10:15PM 34.0033 -148.0920 39° Northeast 485 558 37,000  Level FlightAware Transoceanic
10:16PM 34.1079 -147.9891 39° Northeast 485 558 37,000  Level FlightAware Transoceanic
10:17PM 34.2124 -147.8860 39° Northeast 485 558 37,000  Level FlightAware Transoceanic
10:18PM 34.3168 -147.7826 39° Northeast 485 558 37,000  Level FlightAware Transoceanic
10:19PM 34.4212 -147.6790 39° Northeast 485 558 37,000  Level FlightAware Transoceanic
10:20PM 34.5255 -147.5751 39° Northeast 485 558 37,000  Level FlightAware Transoceanic
10:21PM 34.6296 -147.4709 39° Northeast 485 558 37,000  Level FlightAware Transoceanic
10:22PM 34.7337 -147.3665 40° Northeast 485 558 37,000  Level FlightAware Transoceanic
10:23PM 34.8377 -147.2618 40° Northeast 485 558 37,000  Level FlightAware Transoceanic
10:24PM 34.9416 -147.1569 40° Northeast 485 558 37,000  Level FlightAware Transoceanic
10:25PM 35.0454 -147.0516 40° Northeast 485 558 37,000  Level FlightAware Transoceanic
10:26PM 35.1492 -146.9462 40° Northeast 485 558 37,000  Level FlightAware Transoceanic
10:27PM 35.2528 -146.8404 40° Northeast 485 558 37,000  Level FlightAware Transoceanic
10:28PM 35.3563 -146.7344 40° Northeast 485 558 37,000  Level FlightAware Transoceanic
10:29PM 35.4598 -146.6281 40° Northeast 485 558 37,000  Level FlightAware Transoceanic
10:30PM 35.5631 -146.5215 40° Northeast 485 558 37,000  Level FlightAware Transoceanic
10:31PM 35.6664 -146.4147 40° Northeast 485 558 37,000  Level FlightAware Transoceanic
10:32PM 35.7696 -146.3076 40° Northeast 485 558 37,000  Level FlightAware Transoceanic
10:33PM 35.8727 -146.2002 40° Northeast 485 558 37,000  Level FlightAware Transoceanic
10:34PM 35.9756 -146.0925 40° Northeast 485 558 37,000  Level FlightAware Transoceanic
10:35PM 36.0785 -145.9845 40° Northeast 485 558 37,000  Level FlightAware Transoceanic
10:36PM 36.1813 -145.8763 40° Northeast 485 558 37,000  Level FlightAware Transoceanic
10:37PM 36.2840 -145.7678 40° Northeast 485 558 37,000  Level FlightAware Transoceanic
10:38PM 36.3866 -145.6590 41° Northeast 485 558 37,000  Level FlightAware Transoceanic
10:39PM 36.4891 -145.5499 41° Northeast 485 558 37,000  Level FlightAware Transoceanic
10:40PM 36.5914 -145.4405 41° Northeast 485 558 37,000  Level FlightAware Transoceanic
10:41PM 36.6937 -145.3308 41° Northeast 485 558 37,000  Level FlightAware Transoceanic
10:42PM 36.7959 -145.2208 41° Northeast 485 558 37,000  Level FlightAware Transoceanic
10:43PM 36.8980 -145.1106 41° Northeast 485 558 37,000  Level FlightAware Transoceanic
10:44PM 37.0000 -145.0000 43° Northeast 485 558 37,000  Level FlightAware Transoceanic
10:45PM 37.0976 -144.8873 43° Northeast 485 558 37,000  Level FlightAware Transoceanic
10:46PM 37.1951 -144.7744 43° Northeast 485 558 37,000  Level FlightAware Transoceanic
10:46PM 37.0000 -145.0000 43° Northeast 467 537 37,000  Level Oakland Oceanic (ODAPS)
10:47PM 37.2925 -144.6611 43° Northeast 485 558 37,000  Level FlightAware Transoceanic
10:48PM 37.3898 -144.5475 43° Northeast 485 558 37,000  Level FlightAware Transoceanic
10:49PM 37.4870 -144.4337 43° Northeast 485 558 37,000  Level FlightAware Transoceanic
10:50PM 37.5841 -144.3195 43° Northeast 485 558 37,000  Level FlightAware Transoceanic
10:51PM 37.6811 -144.2051 43° Northeast 485 558 37,000  Level FlightAware Transoceanic
10:52PM 37.7599 -144.1117 43° Northeast 467 537 37,000  Level FlightAware Transoceanic
10:53PM 37.8544 -143.9994 43° Northeast 467 537 37,000  Level FlightAware Transoceanic
10:54PM 37.9488 -143.8868 43° Northeast 467 537 37,000  Level FlightAware Transoceanic
10:55PM 38.0431 -143.7739 43° Northeast 467 537 37,000  Level FlightAware Transoceanic
10:56PM 38.1373 -143.6607 43° Northeast 467 537 37,000  Level FlightAware Transoceanic
10:57PM 38.2314 -143.5473 44° Northeast 467 537 37,000  Level FlightAware Transoceanic
10:58PM 38.3254 -143.4335 44° Northeast 467 537 37,000  Level FlightAware Transoceanic
10:59PM 38.4193 -143.3194 44° Northeast 467 537 37,000  Level FlightAware Transoceanic
11:00PM 38.5130 -143.2051 44° Northeast 467 537 37,000  Level FlightAware Transoceanic
11:01PM 38.6067 -143.0904 44° Northeast 467 537 37,000  Level FlightAware Transoceanic
11:02PM 38.7002 -142.9755 44° Northeast 467 537 37,000  Level FlightAware Transoceanic
11:03PM 38.7936 -142.8602 44° Northeast 467 537 37,000  Level FlightAware Transoceanic
11:04PM 38.8869 -142.7446 44° Northeast 467 537 37,000  Level FlightAware Transoceanic
11:05PM 38.9801 -142.6288 44° Northeast 467 537 37,000  Level FlightAware Transoceanic
11:06PM 39.0732 -142.5126 44° Northeast 467 537 37,000  Level FlightAware Transoceanic
11:07PM 39.1661 -142.3961 44° Northeast 467 537 37,000  Level FlightAware Transoceanic
11:08PM 39.2590 -142.2794 44° Northeast 467 537 37,000  Level FlightAware Transoceanic
11:09PM 39.3517 -142.1623 44° Northeast 467 537 37,000  Level FlightAware Transoceanic
11:10PM 39.4443 -142.0449 44° Northeast 467 537 37,000  Level FlightAware Transoceanic
11:11PM 39.5368 -141.9272 45° Northeast 467 537 37,000  Level FlightAware Transoceanic
11:12PM 39.6292 -141.8091 45° Northeast 467 537 37,000  Level FlightAware Transoceanic
11:13PM 39.7215 -141.6908 45° Northeast 467 537 37,000  Level FlightAware Transoceanic
11:14PM 39.8136 -141.5721 45° Northeast 467 537 37,000  Level FlightAware Transoceanic
11:15PM 39.9056 -141.4531 45° Northeast 467 537 37,000  Level FlightAware Transoceanic
11:16PM 39.9975 -141.3338 45° Northeast 467 537 37,000  Level FlightAware Transoceanic
11:17PM 40.0892 -141.2142 45° Northeast 467 537 37,000  Level FlightAware Transoceanic
11:18PM 40.1809 -141.0943 45° Northeast 467 537 37,000  Level FlightAware Transoceanic
11:19PM 40.2724 -140.9740 45° Northeast 467 537 37,000  Level FlightAware Transoceanic
11:20PM 40.3638 -140.8534 45° Northeast 467 537 37,000  Level FlightAware Transoceanic
11:21PM 40.4551 -140.7325 45° Northeast 467 537 37,000  Level FlightAware Transoceanic
11:22PM 40.5462 -140.6112 45° Northeast 467 537 37,000  Level FlightAware Transoceanic
11:23PM 40.6372 -140.4897 45° Northeast 467 537 37,000  Level FlightAware Transoceanic
11:24PM 40.7281 -140.3677 46° Northeast 467 537 37,000  Level FlightAware Transoceanic
11:25PM 40.8189 -140.2455 46° Northeast 467 537 37,000  Level FlightAware Transoceanic
11:26PM 40.9095 -140.1229 46° Northeast 467 537 37,000  Level FlightAware Transoceanic
11:27PM 41.0000 -140.0000 41° Northeast 467 537 37,000  Level FlightAware Transoceanic
11:28PM 41.0954 -139.8909 41° Northeast 467 537 37,000  Level FlightAware Transoceanic
11:29PM 41.1907 -139.7814 41° Northeast 467 537 37,000  Level FlightAware Transoceanic
11:29PM 41.0000 -140.0000 41° Northeast 454 522 37,000  Level Oakland Oceanic (ODAPS)
11:30PM 41.2859 -139.6717 41° Northeast 467 537 37,000  Level FlightAware Transoceanic
11:31PM 41.3809 -139.5616 41° Northeast 467 537 37,000  Level FlightAware Transoceanic
11:32PM 41.4759 -139.4512 41° Northeast 467 537 37,000  Level FlightAware Transoceanic
11:33PM 41.5708 -139.3405 41° Northeast 467 537 37,000  Level FlightAware Transoceanic
11:34PM 41.6655 -139.2294 41° Northeast 467 537 37,000  Level FlightAware Transoceanic
11:35PM 41.7602 -139.1180 41° Northeast 454 522 37,000  Level FlightAware Transoceanic
11:36PM 41.8547 -139.0063 41° Northeast 454 522 37,000  Level FlightAware Transoceanic
11:37PM 41.9492 -138.8943 41° Northeast 454 522 37,000  Level FlightAware Transoceanic
11:38PM 42.0435 -138.7819 42° Northeast 454 522 37,000  Level FlightAware Transoceanic
11:39PM 42.1377 -138.6692 42° Northeast 454 522 37,000  Level FlightAware Transoceanic
11:40PM 42.2318 -138.5561 42° Northeast 454 522 37,000  Level FlightAware Transoceanic
11:41PM 42.3258 -138.4427 42° Northeast 454 522 37,000  Level FlightAware Transoceanic
11:42PM 42.4197 -138.3290 42° Northeast 454 522 37,000  Level FlightAware Transoceanic
11:43PM 42.5135 -138.2150 42° Northeast 454 522 37,000  Level FlightAware Transoceanic
11:44PM 42.6072 -138.1006 42° Northeast 454 522 37,000  Level FlightAware Transoceanic
11:45PM 42.7007 -137.9858 42° Northeast 454 522 37,000  Level FlightAware Transoceanic
11:46PM 42.7941 -137.8707 42° Northeast 454 522 37,000  Level FlightAware Transoceanic
11:47PM 42.8874 -137.7553 42° Northeast 454 522 37,000  Level FlightAware Transoceanic
11:48PM 42.9806 -137.6395 42° Northeast 454 522 37,000  Level FlightAware Transoceanic
11:49PM 43.0737 -137.5233 42° Northeast 454 522 37,000  Level FlightAware Transoceanic
11:50PM 43.1667 -137.4068 42° Northeast 454 522 37,000  Level FlightAware Transoceanic
11:51PM 43.2595 -137.2900 43° Northeast 454 522 37,000  Level FlightAware Transoceanic
11:52PM 43.3522 -137.1728 43° Northeast 454 522 37,000  Level FlightAware Transoceanic
11:53PM 43.4449 -137.0552 43° Northeast 454 522 37,000  Level FlightAware Transoceanic
11:54PM 43.5373 -136.9373 43° Northeast 454 522 37,000  Level FlightAware Transoceanic
11:55PM 43.6297 -136.8190 43° Northeast 454 522 37,000  Level FlightAware Transoceanic
11:56PM 43.7219 -136.7004 43° Northeast 454 522 37,000  Level FlightAware Transoceanic
11:57PM 43.8140 -136.5813 43° Northeast 454 522 37,000  Level FlightAware Transoceanic
11:58PM 43.9060 -136.4620 43° Northeast 454 522 37,000  Level FlightAware Transoceanic
11:59PM 43.9979 -136.3422 43° Northeast 454 522 37,000  Level FlightAware Transoceanic
12:00AM 44.0896 -136.2221 43° Northeast 454 522 37,000  Level FlightAware Transoceanic
12:01AM 44.1813 -136.1016 43° Northeast 454 522 37,000  Level FlightAware Transoceanic
12:02AM 44.2728 -135.9807 43° Northeast 454 522 37,000  Level FlightAware Transoceanic
12:03AM 44.3641 -135.8595 44° Northeast 454 522 37,000  Level FlightAware Transoceanic
12:04AM 44.4553 -135.7378 44° Northeast 454 522 37,000  Level FlightAware Transoceanic
12:05AM 44.5465 -135.6158 44° Northeast 454 522 37,000  Level FlightAware Transoceanic
12:06AM 44.6374 -135.4934 44° Northeast 454 522 37,000  Level FlightAware Transoceanic
12:07AM 44.7283 -135.3707 44° Northeast 454 522 37,000  Level FlightAware Transoceanic
12:08AM 44.8190 -135.2475 44° Northeast 454 522 37,000  Level FlightAware Transoceanic
12:09AM 44.9096 -135.1239 44° Northeast 454 522 37,000  Level FlightAware Transoceanic
12:10AM 45.0000 -135.0000 51° Northeast 454 522 37,000  Level FlightAware Transoceanic
12:11AM 45.0781 -134.8615 51° Northeast 454 522 37,000  Level FlightAware Transoceanic
12:12AM 45.1561 -134.7226 52° Northeast 454 522 37,000  Level FlightAware Transoceanic
12:12AM 45.0000 -135.0000 51° Northeast 427 491 37,000  Level Oakland Oceanic (ODAPS)
12:13AM 45.2339 -134.5834 52° Northeast 454 522 37,000  Level FlightAware Transoceanic
12:14AM 45.3115 -134.4437 52° Northeast 454 522 37,000  Level FlightAware Transoceanic
12:15AM 45.3889 -134.3037 52° Northeast 454 522 37,000  Level FlightAware Transoceanic
12:16AM 45.4662 -134.1633 52° Northeast 454 522 37,000  Level FlightAware Transoceanic
12:17AM 45.5433 -134.0225 52° Northeast 454 522 37,000  Level FlightAware Transoceanic
12:18AM 45.5879 -133.9408 52° Northeast 427 491 37,000  Level FlightAware Transoceanic
12:19AM 45.6607 -133.8069 52° Northeast 427 491 37,000  Level FlightAware Transoceanic
12:20AM 45.7333 -133.6726 52° Northeast 427 491 37,000  Level FlightAware Transoceanic
12:21AM 45.8058 -133.5379 52° Northeast 427 491 37,000  Level FlightAware Transoceanic
12:22AM 45.8781 -133.4029 52° Northeast 427 491 37,000  Level FlightAware Transoceanic
12:23AM 45.9503 -133.2676 53° Northeast 427 491 37,000  Level FlightAware Transoceanic
12:24AM 46.0223 -133.1319 53° Northeast 427 491 37,000  Level FlightAware Transoceanic
12:25AM 46.0941 -132.9958 53° Northeast 427 491 37,000  Level FlightAware Transoceanic
12:26AM 46.1658 -132.8594 53° Northeast 427 491 37,000  Level FlightAware Transoceanic
12:27AM 46.2373 -132.7226 53° Northeast 427 491 37,000  Level FlightAware Transoceanic
12:28AM 46.3087 -132.5855 53° Northeast 427 491 37,000  Level FlightAware Transoceanic
12:29AM 46.3798 -132.4480 53° Northeast 427 491 37,000  Level FlightAware Transoceanic
12:30AM 46.4509 -132.3102 53° Northeast 427 491 37,000  Level FlightAware Transoceanic
12:31AM 46.5217 -132.1720 53° Northeast 427 491 37,000  Level FlightAware Transoceanic
12:32AM 46.5924 -132.0334 53° Northeast 427 491 37,000  Level FlightAware Transoceanic
12:33AM 46.6629 -131.8945 54° Northeast 427 491 37,000  Level FlightAware Transoceanic
12:34AM 46.7333 -131.7552 54° Northeast 427 491 37,000  Level FlightAware Transoceanic
12:35AM 46.8035 -131.6156 54° Northeast 427 491 37,000  Level FlightAware Transoceanic
12:36AM 46.8735 -131.4756 54° Northeast 427 491 37,000  Level FlightAware Transoceanic
12:37AM 46.9433 -131.3352 54° Northeast 427 491 37,000  Level FlightAware Transoceanic
12:38AM 47.0130 -131.1944 54° Northeast 427 491 37,000  Level FlightAware Transoceanic
12:39AM 47.0825 -131.0533 54° Northeast 427 491 37,000  Level FlightAware Transoceanic
12:40AM 47.1518 -130.9118 54° Northeast 427 491 37,000  Level FlightAware Transoceanic
12:41AM 47.2209 -130.7700 54° Northeast 427 491 37,000  Level FlightAware Transoceanic
12:42AM 47.2899 -130.6278 55° Northeast 427 491 37,000  Level FlightAware Transoceanic
12:43AM 47.3587 -130.4852 55° Northeast 427 491 37,000  Level FlightAware Transoceanic
12:44AM 47.4273 -130.3422 55° Northeast 427 491 37,000  Level FlightAware Transoceanic
12:45AM 47.4958 -130.1989 55° Northeast 427 491 37,000  Level FlightAware Transoceanic
12:46AM 47.5640 -130.0552 55° Northeast 427 491 37,000  Level FlightAware Transoceanic
12:47AM 47.6321 -129.9111 55° Northeast 427 491 37,000  Level FlightAware Transoceanic
12:48AM 47.7000 -129.7667 61° Northeast 427 491 37,000 1,680 Level FlightAware Transoceanic
12:48AM 47.7167 -129.6500 62° Northeast 440 506 39,000  Climbing Vancouver Center
12:49AM 47.7587 -129.6078 61° Northeast 427 491 37,000  Descending FlightAware Transoceanic
12:49AM 47.7833 -129.5167 53° Northeast 440 506 39,000  Climbing Vancouver Center
12:50AM 47.8172 -129.4487 61° Northeast 427 491 37,000  Descending FlightAware Transoceanic
12:50AM 47.8333 -129.3500 66° East 440 506 39,000  Climbing Vancouver Center
12:51AM 47.8754 -129.2892 62° Northeast 427 491 37,000  Descending FlightAware Transoceanic
12:51AM 47.9000 -129.2000 56° Northeast 440 506 39,000  Climbing Vancouver Center
12:52AM 47.9334 -129.1293 62° Northeast 427 491 37,000  Descending FlightAware Transoceanic
12:52AM 47.9500 -129.0333 66° East 430 495 39,000  Climbing Vancouver Center
12:53AM 47.9912 -128.9690 62° Northeast 427 491 37,000  Descending FlightAware Transoceanic
12:53AM 48.0000 -128.8667 66° East 440 506 39,000 1,680 Climbing Vancouver Center
12:54AM 48.0667 -128.7167 56° Northeast 430 495 39,000  Level Vancouver Center
12:55AM 48.1167 -128.5500 66° East 440 506 39,000  Level Vancouver Center
12:56AM 48.1833 -128.4000 56° Northeast 440 506 39,000  Level Vancouver Center
12:57AM 48.2333 -128.2333 66° East 440 506 39,000  Level Vancouver Center
12:58AM 48.2833 -128.0667 66° East 440 506 39,000  Level Vancouver Center
12:59AM 48.3500 -127.9000 59° Northeast 440 506 39,000  Level Vancouver Center
01:00AM 48.3833 -127.7167 75° East 440 506 39,000  Level Vancouver Center
01:01AM 48.4500 -127.5500 59° Northeast 450 518 39,000  Level Vancouver Center
01:02AM 48.4833 -127.3833 73° East 450 518 39,000  Level Vancouver Center
01:03AM 48.5167 -127.1833 76° East 450 518 39,000  Level Vancouver Center
01:04AM 48.5667 -127.0333 63° Northeast 450 518 39,000  Level Vancouver Center
01:05AM 48.6000 -126.8333 76° East 450 518 39,000  Level Vancouver Center
01:06AM 48.6333 -126.6500 75° East 440 506 39,000 -420 Level Vancouver Center
01:07AM 48.6667 -126.4833 73° East 440 506 38,200 -1,620 Descending Vancouver Center
01:08AM 48.7167 -126.3000 67° East 440 506 35,800 -2,760 Descending Vancouver Center
01:09AM 48.7500 -126.1333 73° East 440 506 32,700 -2,700 Descending Vancouver Center
01:10AM 48.8000 -125.9500 67° East 440 506 30,400 -2,400 Descending Vancouver Center
01:11AM 48.8333 -125.7833 73° East 430 495 28,000 -2,280 Descending Vancouver Center
01:12AM 48.8667 -125.6000 74° East 420 483 25,900 -2,100 Descending Vancouver Center
01:13AM 48.9167 -125.4500 63° Northeast 410 472 23,800 -2,160 Descending Vancouver Center
01:14AM 48.9500 -125.3000 71° East 400 460 21,600 -2,100 Descending Vancouver Center
01:15AM 48.9833 -125.1500 71° East 390 449 19,600 -2,040 Descending Vancouver Center
01:16AM 49.0000 -124.9667 82° East 380 437 17,600 -2,040 Descending Vancouver Center
01:17AM 49.0333 -124.8500 66° East 370 426 15,600 -2,040 Descending Vancouver Center
01:18AM 49.0833 -124.6833 65° Northeast 360 414 13,600 -1,980 Descending Vancouver Center
01:19AM 49.1167 -124.5667 66° East 350 403 11,700 -1,680 Descending Vancouver Center
01:20AM 49.1500 -124.4333 69° East 340 391 10,300 -1,200 Descending Vancouver Center
01:21AM 49.1833 -124.3167 66° East 310 357 9,300 -660 Descending Vancouver Center
01:22AM 49.2167 -124.2000 66° East 290 334 9,000 -180 Descending Vancouver Center
01:23AM 49.2333 -124.0833 78° East 280 322 9,000 -600 Level Vancouver Center
01:24AM 49.2333 -123.9500 90° East 290 334 7,900 -1,200 Descending Vancouver Center
01:25AM 49.2167 -123.8167 101° East 280 322 6,600 -1,200 Descending Vancouver Center
01:26AM 49.2167 -123.7167 90° East 270 311 5,600 -900 Descending Vancouver Center
01:27AM 49.2167 -123.6167 90° East 260 299 4,900 -840 Descending Vancouver Center
01:28AM 49.2000 -123.5167 104° East 230 265 4,000 -1,020 Descending Vancouver Center
01:29AM 49.2000 -123.4333 90° East 220 253 2,900 -1,140 Descending Vancouver Center
01:30AM 49.1833 -123.3333 104° East 210 242 1,800 -1,020 Descending Vancouver Center
01:31AM 49.1833 -123.2667 90° East 170 196 900 -840 Descending Vancouver Center
01:32AM 49.1667 -123.2167 117° Southeast 140 161 200 -720 Descending Vancouver Center